ワルシャワ の空港の天気 - METARとTAF

ワルシャワ・フレデリック・ショパン空港 ( EPWA / WAW ) - ポーランド ワルシャワ
飛行場実況気象(Metar)
観測時間10/16 10:00 CEST (10/16 08:00 UTC)
風向・風速南 6m/s
視程10km以上
天気現象
なし
気温17℃
湿度68%
気圧1009hPa
METAREPWA 160800Z 18011KT CAVOK 17/11 Q1009 NOSIG
過去の天気等 Google飛行場航空写真 Wunderground天気予報

過去48時間のMETAR

飛行場予報(TAF)
発表時間: 10/16 07:30 CEST (10/16 05:30 UTC)
予報対象時間: 16日8時 CEST ~ 17日8時 CEST
風向・風速南南東 4m/s
視程10km以上
なし
16日11時 CEST ~ 16日14時 CEST に徐々に
風向・風速南南西 5m/s
16日13時 CEST ~ 16日22時 CEST に 確率 40% で一時的に
全天の8割程度の塔状積雲 雲底高度 910m
TAF EPWA 160530Z 1606/1706 15008KT CAVOK
BECMG 1609/1612 21010KT
PROB40 TEMPO 1611/1620 BKN030TCU